sensor_id;sensor_type;location;lat;lon;timestamp;P1;durP1;ratioP1;P2;durP2;ratioP2
17173;SDS011;8702;48.130;-1.696;2022-12-18T00:00:06;25.88;;;21.25;;
17173;SDS011;8702;48.130;-1.696;2022-12-18T00:02:33;24.00;;;21.27;;
17173;SDS011;8702;48.130;-1.696;2022-12-18T00:05:02;25.92;;;21.45;;
17173;SDS011;8702;48.130;-1.696;2022-12-18T00:07:30;24.55;;;21.27;;
17173;SDS011;8702;48.130;-1.696;2022-12-18T00:09:59;25.80;;;21.20;;
17173;SDS011;8702;48.130;-1.696;2022-12-18T00:12:26;25.27;;;21.08;;
17173;SDS011;8702;48.130;-1.696;2022-12-18T00:14:53;24.77;;;21.58;;
17173;SDS011;8702;48.130;-1.696;2022-12-18T00:17:19;25.45;;;21.92;;
17173;SDS011;8702;48.130;-1.696;2022-12-18T00:19:46;25.58;;;22.00;;
17173;SDS011;8702;48.130;-1.696;2022-12-18T00:22:15;26.13;;;21.45;;
17173;SDS011;8702;48.130;-1.696;2022-12-18T00:24:44;25.98;;;21.92;;
17173;SDS011;8702;48.130;-1.696;2022-12-18T00:27:11;25.02;;;21.50;;
17173;SDS011;8702;48.130;-1.696;2022-12-18T00:29:39;25.77;;;21.88;;
17173;SDS011;8702;48.130;-1.696;2022-12-18T00:32:06;24.08;;;21.10;;
17173;SDS011;8702;48.130;-1.696;2022-12-18T00:34:33;24.55;;;21.20;;
17173;SDS011;8702;48.130;-1.696;2022-12-18T00:37:01;24.80;;;21.70;;
17173;SDS011;8702;48.130;-1.696;2022-12-18T00:39:30;25.67;;;21.52;;
17173;SDS011;8702;48.130;-1.696;2022-12-18T00:41:57;25.73;;;21.45;;
17173;SDS011;8702;48.130;-1.696;2022-12-18T00:44:42;24.60;;;21.67;;
17173;SDS011;8702;48.130;-1.696;2022-12-18T00:47:10;25.73;;;22.17;;
17173;SDS011;8702;48.130;-1.696;2022-12-18T00:49:37;24.25;;;20.98;;
17173;SDS011;8702;48.130;-1.696;2022-12-18T00:52:05;24.75;;;21.02;;
17173;SDS011;8702;48.130;-1.696;2022-12-18T00:54:33;26.00;;;22.27;;
17173;SDS011;8702;48.130;-1.696;2022-12-18T00:57:00;25.25;;;21.02;;
17173;SDS011;8702;48.130;-1.696;2022-12-18T00:59:28;26.45;;;21.55;;
17173;SDS011;8702;48.130;-1.696;2022-12-18T01:01:55;25.10;;;21.73;;
17173;SDS011;8702;48.130;-1.696;2022-12-18T01:04:22;25.03;;;20.70;;
17173;SDS011;8702;48.130;-1.696;2022-12-18T01:06:49;24.45;;;21.05;;
17173;SDS011;8702;48.130;-1.696;2022-12-18T01:09:17;24.20;;;21.15;;
17173;SDS011;8702;48.130;-1.696;2022-12-18T01:11:45;24.08;;;20.73;;
17173;SDS011;8702;48.130;-1.696;2022-12-18T01:14:12;23.33;;;20.27;;
17173;SDS011;8702;48.130;-1.696;2022-12-18T01:16:40;24.58;;;21.23;;
17173;SDS011;8702;48.130;-1.696;2022-12-18T01:19:07;27.50;;;22.23;;
17173;SDS011;8702;48.130;-1.696;2022-12-18T01:21:35;25.67;;;21.45;;
17173;SDS011;8702;48.130;-1.696;2022-12-18T01:24:03;24.70;;;21.70;;
17173;SDS011;8702;48.130;-1.696;2022-12-18T01:26:30;24.38;;;21.30;;
17173;SDS011;8702;48.130;-1.696;2022-12-18T01:28:58;24.75;;;21.13;;
17173;SDS011;8702;48.130;-1.696;2022-12-18T01:31:26;26.17;;;21.02;;
17173;SDS011;8702;48.130;-1.696;2022-12-18T01:33:54;25.40;;;21.58;;
17173;SDS011;8702;48.130;-1.696;2022-12-18T01:36:23;24.98;;;21.38;;
17173;SDS011;8702;48.130;-1.696;2022-12-18T01:38:51;24.13;;;21.35;;
17173;SDS011;8702;48.130;-1.696;2022-12-18T01:41:19;27.90;;;22.60;;
17173;SDS011;8702;48.130;-1.696;2022-12-18T01:43:48;26.08;;;21.17;;
17173;SDS011;8702;48.130;-1.696;2022-12-18T01:46:17;24.90;;;21.92;;
17173;SDS011;8702;48.130;-1.696;2022-12-18T01:48:45;25.98;;;21.95;;
17173;SDS011;8702;48.130;-1.696;2022-12-18T01:51:13;26.85;;;21.27;;
17173;SDS011;8702;48.130;-1.696;2022-12-18T01:53:41;24.45;;;21.40;;
17173;SDS011;8702;48.130;-1.696;2022-12-18T01:56:11;24.25;;;21.48;;
17173;SDS011;8702;48.130;-1.696;2022-12-18T01:58:40;25.90;;;21.65;;
17173;SDS011;8702;48.130;-1.696;2022-12-18T02:01:09;25.85;;;21.55;;
17173;SDS011;8702;48.130;-1.696;2022-12-18T02:03:40;26.58;;;22.02;;
17173;SDS011;8702;48.130;-1.696;2022-12-18T02:06:09;24.33;;;21.02;;
17173;SDS011;8702;48.130;-1.696;2022-12-18T02:08:40;26.48;;;21.50;;
17173;SDS011;8702;48.130;-1.696;2022-12-18T02:11:10;25.25;;;21.63;;
17173;SDS011;8702;48.130;-1.696;2022-12-18T02:13:41;24.07;;;20.63;;
17173;SDS011;8702;48.130;-1.696;2022-12-18T02:16:13;23.60;;;20.77;;
17173;SDS011;8702;48.130;-1.696;2022-12-18T02:18:44;24.73;;;21.23;;
17173;SDS011;8702;48.130;-1.696;2022-12-18T02:21:12;25.85;;;21.58;;
17173;SDS011;8702;48.130;-1.696;2022-12-18T02:23:49;25.00;;;21.85;;
17173;SDS011;8702;48.130;-1.696;2022-12-18T02:26:21;26.20;;;22.05;;
17173;SDS011;8702;48.130;-1.696;2022-12-18T02:28:51;26.15;;;21.85;;
17173;SDS011;8702;48.130;-1.696;2022-12-18T02:31:21;24.35;;;21.23;;
17173;SDS011;8702;48.130;-1.696;2022-12-18T02:33:50;24.10;;;21.17;;
17173;SDS011;8702;48.130;-1.696;2022-12-18T02:36:18;24.75;;;21.38;;
17173;SDS011;8702;48.130;-1.696;2022-12-18T02:38:46;24.95;;;21.63;;
17173;SDS011;8702;48.130;-1.696;2022-12-18T02:41:14;26.23;;;22.77;;
17173;SDS011;8702;48.130;-1.696;2022-12-18T02:43:47;24.27;;;20.65;;
17173;SDS011;8702;48.130;-1.696;2022-12-18T02:46:23;26.88;;;21.83;;
17173;SDS011;8702;48.130;-1.696;2022-12-18T02:48:52;25.80;;;21.95;;
17173;SDS011;8702;48.130;-1.696;2022-12-18T02:51:21;25.17;;;21.77;;
17173;SDS011;8702;48.130;-1.696;2022-12-18T02:53:51;26.98;;;22.33;;
17173;SDS011;8702;48.130;-1.696;2022-12-18T02:56:21;26.48;;;22.30;;
17173;SDS011;8702;48.130;-1.696;2022-12-18T02:58:53;25.55;;;21.42;;
17173;SDS011;8702;48.130;-1.696;2022-12-18T03:01:24;25.85;;;21.60;;
17173;SDS011;8702;48.130;-1.696;2022-12-18T03:03:56;25.55;;;21.45;;
17173;SDS011;8702;48.130;-1.696;2022-12-18T03:06:25;25.45;;;21.45;;
17173;SDS011;8702;48.130;-1.696;2022-12-18T03:08:56;25.38;;;21.05;;
17173;SDS011;8702;48.130;-1.696;2022-12-18T03:11:25;26.70;;;21.30;;
17173;SDS011;8702;48.130;-1.696;2022-12-18T03:14:09;25.33;;;21.07;;
17173;SDS011;8702;48.130;-1.696;2022-12-18T03:16:37;26.73;;;22.35;;
17173;SDS011;8702;48.130;-1.696;2022-12-18T03:19:06;25.00;;;21.23;;
17173;SDS011;8702;48.130;-1.696;2022-12-18T03:21:36;24.55;;;21.05;;
17173;SDS011;8702;48.130;-1.696;2022-12-18T03:24:04;24.15;;;20.58;;
17173;SDS011;8702;48.130;-1.696;2022-12-18T03:26:33;25.35;;;21.15;;
17173;SDS011;8702;48.130;-1.696;2022-12-18T03:29:03;25.60;;;21.83;;
17173;SDS011;8702;48.130;-1.696;2022-12-18T03:31:32;25.73;;;20.58;;
17173;SDS011;8702;48.130;-1.696;2022-12-18T03:34:01;26.17;;;21.65;;
17173;SDS011;8702;48.130;-1.696;2022-12-18T03:36:30;24.90;;;20.92;;
17173;SDS011;8702;48.130;-1.696;2022-12-18T03:38:57;23.23;;;20.20;;
17173;SDS011;8702;48.130;-1.696;2022-12-18T03:41:25;23.30;;;20.33;;
17173;SDS011;8702;48.130;-1.696;2022-12-18T03:43:57;24.95;;;20.80;;
17173;SDS011;8702;48.130;-1.696;2022-12-18T03:46:30;23.02;;;20.33;;
17173;SDS011;8702;48.130;-1.696;2022-12-18T03:49:02;22.60;;;19.48;;
17173;SDS011;8702;48.130;-1.696;2022-12-18T03:51:36;22.80;;;20.00;;
17173;SDS011;8702;48.130;-1.696;2022-12-18T03:54:04;22.63;;;19.95;;
17173;SDS011;8702;48.130;-1.696;2022-12-18T03:56:35;22.88;;;20.27;;
17173;SDS011;8702;48.130;-1.696;2022-12-18T03:59:03;22.35;;;19.95;;
17173;SDS011;8702;48.130;-1.696;2022-12-18T04:01:32;25.17;;;20.27;;
17173;SDS011;8702;48.130;-1.696;2022-12-18T04:04:01;25.17;;;20.90;;
17173;SDS011;8702;48.130;-1.696;2022-12-18T04:06:30;24.13;;;20.55;;
17173;SDS011;8702;48.130;-1.696;2022-12-18T04:08:57;26.90;;;20.98;;
17173;SDS011;8702;48.130;-1.696;2022-12-18T04:11:25;24.92;;;20.13;;
17173;SDS011;8702;48.130;-1.696;2022-12-18T04:13:55;24.35;;;20.67;;
17173;SDS011;8702;48.130;-1.696;2022-12-18T04:16:23;23.58;;;20.35;;
17173;SDS011;8702;48.130;-1.696;2022-12-18T04:18:50;24.85;;;20.88;;
17173;SDS011;8702;48.130;-1.696;2022-12-18T04:21:19;22.20;;;19.52;;
17173;SDS011;8702;48.130;-1.696;2022-12-18T04:23:47;24.17;;;20.05;;
17173;SDS011;8702;48.130;-1.696;2022-12-18T04:26:14;23.77;;;20.05;;
17173;SDS011;8702;48.130;-1.696;2022-12-18T04:28:42;22.77;;;20.03;;
17173;SDS011;8702;48.130;-1.696;2022-12-18T04:31:09;24.05;;;20.20;;
17173;SDS011;8702;48.130;-1.696;2022-12-18T04:33:36;23.35;;;20.08;;
17173;SDS011;8702;48.130;-1.696;2022-12-18T04:36:04;20.85;;;18.40;;
17173;SDS011;8702;48.130;-1.696;2022-12-18T04:38:33;22.33;;;19.55;;
17173;SDS011;8702;48.130;-1.696;2022-12-18T04:41:00;22.92;;;19.73;;
17173;SDS011;8702;48.130;-1.696;2022-12-18T04:43:27;21.85;;;19.33;;
17173;SDS011;8702;48.130;-1.696;2022-12-18T04:46:00;22.65;;;18.73;;
17173;SDS011;8702;48.130;-1.696;2022-12-18T04:48:28;22.73;;;18.73;;
17173;SDS011;8702;48.130;-1.696;2022-12-18T04:50:55;23.25;;;19.48;;
17173;SDS011;8702;48.130;-1.696;2022-12-18T04:53:22;23.25;;;19.85;;
17173;SDS011;8702;48.130;-1.696;2022-12-18T04:55:51;22.60;;;18.92;;
17173;SDS011;8702;48.130;-1.696;2022-12-18T04:58:28;23.48;;;20.23;;
17173;SDS011;8702;48.130;-1.696;2022-12-18T05:00:55;24.07;;;19.20;;
17173;SDS011;8702;48.130;-1.696;2022-12-18T05:03:22;22.60;;;19.35;;
17173;SDS011;8702;48.130;-1.696;2022-12-18T05:05:50;22.83;;;19.38;;
17173;SDS011;8702;48.130;-1.696;2022-12-18T05:08:17;21.35;;;18.33;;
17173;SDS011;8702;48.130;-1.696;2022-12-18T05:10:44;21.92;;;18.85;;
17173;SDS011;8702;48.130;-1.696;2022-12-18T05:13:13;22.55;;;18.70;;
17173;SDS011;8702;48.130;-1.696;2022-12-18T05:15:40;22.02;;;19.08;;
17173;SDS011;8702;48.130;-1.696;2022-12-18T05:18:07;22.42;;;19.02;;
17173;SDS011;8702;48.130;-1.696;2022-12-18T05:20:35;22.67;;;18.73;;
17173;SDS011;8702;48.130;-1.696;2022-12-18T05:23:02;22.85;;;19.42;;
17173;SDS011;8702;48.130;-1.696;2022-12-18T05:25:29;24.20;;;19.42;;
17173;SDS011;8702;48.130;-1.696;2022-12-18T05:27:56;23.90;;;19.50;;
17173;SDS011;8702;48.130;-1.696;2022-12-18T05:30:25;22.33;;;18.25;;
17173;SDS011;8702;48.130;-1.696;2022-12-18T05:32:52;20.88;;;18.13;;
17173;SDS011;8702;48.130;-1.696;2022-12-18T05:35:19;22.08;;;19.50;;
17173;SDS011;8702;48.130;-1.696;2022-12-18T05:37:47;23.35;;;19.25;;
17173;SDS011;8702;48.130;-1.696;2022-12-18T05:40:14;22.33;;;19.07;;
17173;SDS011;8702;48.130;-1.696;2022-12-18T05:42:41;22.55;;;18.85;;
17173;SDS011;8702;48.130;-1.696;2022-12-18T05:45:08;21.45;;;18.73;;
17173;SDS011;8702;48.130;-1.696;2022-12-18T05:47:37;21.90;;;18.67;;
17173;SDS011;8702;48.130;-1.696;2022-12-18T05:50:05;20.88;;;17.92;;
17173;SDS011;8702;48.130;-1.696;2022-12-18T05:52:32;21.33;;;18.20;;
17173;SDS011;8702;48.130;-1.696;2022-12-18T05:54:59;22.48;;;18.23;;
17173;SDS011;8702;48.130;-1.696;2022-12-18T05:57:27;21.52;;;18.83;;
17173;SDS011;8702;48.130;-1.696;2022-12-18T05:59:54;23.17;;;19.15;;
17173;SDS011;8702;48.130;-1.696;2022-12-18T06:02:21;22.50;;;18.65;;
17173;SDS011;8702;48.130;-1.696;2022-12-18T06:04:49;22.92;;;18.38;;
17173;SDS011;8702;48.130;-1.696;2022-12-18T06:07:16;21.73;;;18.13;;
17173;SDS011;8702;48.130;-1.696;2022-12-18T06:09:43;22.67;;;18.52;;
17173;SDS011;8702;48.130;-1.696;2022-12-18T06:12:10;21.23;;;18.65;;
17173;SDS011;8702;48.130;-1.696;2022-12-18T06:14:37;22.70;;;18.83;;
17173;SDS011;8702;48.130;-1.696;2022-12-18T06:17:04;20.38;;;18.05;;
17173;SDS011;8702;48.130;-1.696;2022-12-18T06:19:31;20.60;;;18.00;;
17173;SDS011;8702;48.130;-1.696;2022-12-18T06:21:59;20.45;;;18.25;;
17173;SDS011;8702;48.130;-1.696;2022-12-18T06:24:26;21.25;;;18.20;;
17173;SDS011;8702;48.130;-1.696;2022-12-18T06:26:53;21.70;;;18.55;;
17173;SDS011;8702;48.130;-1.696;2022-12-18T06:29:20;22.37;;;18.57;;
17173;SDS011;8702;48.130;-1.696;2022-12-18T06:31:47;22.17;;;18.33;;
17173;SDS011;8702;48.130;-1.696;2022-12-18T06:34:14;23.33;;;19.50;;
17173;SDS011;8702;48.130;-1.696;2022-12-18T06:36:41;22.13;;;18.70;;
17173;SDS011;8702;48.130;-1.696;2022-12-18T06:39:10;20.60;;;18.38;;
17173;SDS011;8702;48.130;-1.696;2022-12-18T06:41:37;21.93;;;17.63;;
17173;SDS011;8702;48.130;-1.696;2022-12-18T06:44:04;21.33;;;18.00;;
17173;SDS011;8702;48.130;-1.696;2022-12-18T06:46:30;20.55;;;18.13;;
17173;SDS011;8702;48.130;-1.696;2022-12-18T06:48:58;22.42;;;17.73;;
17173;SDS011;8702;48.130;-1.696;2022-12-18T06:51:25;23.20;;;17.83;;
17173;SDS011;8702;48.130;-1.696;2022-12-18T06:53:52;22.20;;;18.73;;
17173;SDS011;8702;48.130;-1.696;2022-12-18T06:56:21;20.08;;;17.13;;
17173;SDS011;8702;48.130;-1.696;2022-12-18T06:58:49;19.92;;;17.35;;
17173;SDS011;8702;48.130;-1.696;2022-12-18T07:01:16;21.00;;;17.67;;
17173;SDS011;8702;48.130;-1.696;2022-12-18T07:03:43;22.52;;;18.48;;
17173;SDS011;8702;48.130;-1.696;2022-12-18T07:06:14;20.25;;;17.50;;
17173;SDS011;8702;48.130;-1.696;2022-12-18T07:08:42;21.70;;;17.95;;
17173;SDS011;8702;48.130;-1.696;2022-12-18T07:11:09;19.73;;;17.60;;
17173;SDS011;8702;48.130;-1.696;2022-12-18T07:13:38;21.67;;;18.45;;
17173;SDS011;8702;48.130;-1.696;2022-12-18T07:16:06;21.30;;;17.70;;
17173;SDS011;8702;48.130;-1.696;2022-12-18T07:18:33;21.83;;;18.00;;
17173;SDS011;8702;48.130;-1.696;2022-12-18T07:21:07;21.05;;;17.25;;
17173;SDS011;8702;48.130;-1.696;2022-12-18T07:23:35;21.15;;;17.65;;
17173;SDS011;8702;48.130;-1.696;2022-12-18T07:26:02;21.10;;;17.98;;
17173;SDS011;8702;48.130;-1.696;2022-12-18T07:28:30;20.25;;;17.88;;
17173;SDS011;8702;48.130;-1.696;2022-12-18T07:31:02;20.75;;;16.85;;
17173;SDS011;8702;48.130;-1.696;2022-12-18T07:33:29;19.88;;;17.08;;
17173;SDS011;8702;48.130;-1.696;2022-12-18T07:35:58;21.73;;;18.35;;
17173;SDS011;8702;48.130;-1.696;2022-12-18T07:38:26;21.70;;;18.20;;
17173;SDS011;8702;48.130;-1.696;2022-12-18T07:40:54;20.77;;;17.33;;
17173;SDS011;8702;48.130;-1.696;2022-12-18T07:43:21;19.67;;;16.80;;
17173;SDS011;8702;48.130;-1.696;2022-12-18T07:45:48;20.00;;;17.42;;
17173;SDS011;8702;48.130;-1.696;2022-12-18T07:48:18;21.08;;;17.52;;
17173;SDS011;8702;48.130;-1.696;2022-12-18T07:50:45;19.33;;;17.27;;
17173;SDS011;8702;48.130;-1.696;2022-12-18T07:53:12;20.50;;;17.77;;
17173;SDS011;8702;48.130;-1.696;2022-12-18T07:55:39;19.60;;;17.50;;
17173;SDS011;8702;48.130;-1.696;2022-12-18T07:58:07;21.17;;;18.13;;
17173;SDS011;8702;48.130;-1.696;2022-12-18T08:00:34;21.00;;;17.85;;
17173;SDS011;8702;48.130;-1.696;2022-12-18T08:03:02;20.77;;;17.83;;
17173;SDS011;8702;48.130;-1.696;2022-12-18T08:05:30;20.70;;;17.63;;
17173;SDS011;8702;48.130;-1.696;2022-12-18T08:07:58;20.60;;;17.92;;
17173;SDS011;8702;48.130;-1.696;2022-12-18T08:10:25;21.00;;;18.00;;
17173;SDS011;8702;48.130;-1.696;2022-12-18T08:12:52;21.38;;;18.27;;
17173;SDS011;8702;48.130;-1.696;2022-12-18T08:15:19;20.15;;;17.27;;
17173;SDS011;8702;48.130;-1.696;2022-12-18T08:17:46;21.42;;;17.65;;
17173;SDS011;8702;48.130;-1.696;2022-12-18T08:20:14;22.20;;;17.65;;
17173;SDS011;8702;48.130;-1.696;2022-12-18T08:22:44;21.15;;;18.02;;
17173;SDS011;8702;48.130;-1.696;2022-12-18T08:25:11;22.52;;;18.23;;
17173;SDS011;8702;48.130;-1.696;2022-12-18T08:27:39;23.20;;;19.13;;
17173;SDS011;8702;48.130;-1.696;2022-12-18T08:30:06;21.70;;;18.60;;
17173;SDS011;8702;48.130;-1.696;2022-12-18T08:32:34;22.45;;;18.40;;
17173;SDS011;8702;48.130;-1.696;2022-12-18T08:35:01;21.65;;;18.80;;
17173;SDS011;8702;48.130;-1.696;2022-12-18T08:37:28;21.77;;;18.50;;
17173;SDS011;8702;48.130;-1.696;2022-12-18T08:39:57;20.45;;;18.25;;
17173;SDS011;8702;48.130;-1.696;2022-12-18T08:42:24;23.30;;;18.83;;
17173;SDS011;8702;48.130;-1.696;2022-12-18T08:45:09;20.30;;;17.60;;
17173;SDS011;8702;48.130;-1.696;2022-12-18T08:47:37;22.65;;;18.42;;
17173;SDS011;8702;48.130;-1.696;2022-12-18T08:50:04;21.40;;;18.00;;
17173;SDS011;8702;48.130;-1.696;2022-12-18T08:52:32;20.65;;;17.88;;
17173;SDS011;8702;48.130;-1.696;2022-12-18T08:55:00;22.25;;;18.55;;
17173;SDS011;8702;48.130;-1.696;2022-12-18T08:57:28;22.58;;;18.83;;
17173;SDS011;8702;48.130;-1.696;2022-12-18T08:59:55;22.70;;;18.70;;
17173;SDS011;8702;48.130;-1.696;2022-12-18T09:02:22;22.48;;;18.75;;
17173;SDS011;8702;48.130;-1.696;2022-12-18T09:04:49;21.88;;;18.00;;
17173;SDS011;8702;48.130;-1.696;2022-12-18T09:07:17;22.48;;;19.05;;
17173;SDS011;8702;48.130;-1.696;2022-12-18T09:09:44;20.92;;;17.52;;
17173;SDS011;8702;48.130;-1.696;2022-12-18T09:12:12;19.75;;;17.40;;
17173;SDS011;8702;48.130;-1.696;2022-12-18T09:14:39;21.97;;;17.70;;
17173;SDS011;8702;48.130;-1.696;2022-12-18T09:17:06;21.42;;;17.35;;
17173;SDS011;8702;48.130;-1.696;2022-12-18T09:19:33;21.83;;;17.42;;
17173;SDS011;8702;48.130;-1.696;2022-12-18T09:22:00;20.45;;;17.23;;
17173;SDS011;8702;48.130;-1.696;2022-12-18T09:24:27;21.07;;;16.93;;
17173;SDS011;8702;48.130;-1.696;2022-12-18T09:26:54;21.20;;;17.88;;
17173;SDS011;8702;48.130;-1.696;2022-12-18T09:29:22;21.20;;;18.05;;
17173;SDS011;8702;48.130;-1.696;2022-12-18T09:31:49;24.52;;;18.15;;
17173;SDS011;8702;48.130;-1.696;2022-12-18T09:34:16;24.58;;;18.40;;
17173;SDS011;8702;48.130;-1.696;2022-12-18T09:36:46;24.67;;;19.25;;
17173;SDS011;8702;48.130;-1.696;2022-12-18T09:39:13;24.42;;;19.10;;
17173;SDS011;8702;48.130;-1.696;2022-12-18T09:41:44;24.77;;;18.73;;
17173;SDS011;8702;48.130;-1.696;2022-12-18T09:44:18;22.75;;;18.00;;
17173;SDS011;8702;48.130;-1.696;2022-12-18T09:46:52;25.23;;;19.00;;
17173;SDS011;8702;48.130;-1.696;2022-12-18T09:49:25;25.50;;;18.85;;
17173;SDS011;8702;48.130;-1.696;2022-12-18T09:51:56;24.25;;;18.73;;
17173;SDS011;8702;48.130;-1.696;2022-12-18T09:54:25;28.50;;;19.45;;
17173;SDS011;8702;48.130;-1.696;2022-12-18T09:56:58;29.83;;;20.02;;
17173;SDS011;8702;48.130;-1.696;2022-12-18T09:59:27;26.70;;;18.75;;
17173;SDS011;8702;48.130;-1.696;2022-12-18T10:01:58;26.60;;;19.63;;
17173;SDS011;8702;48.130;-1.696;2022-12-18T10:04:25;25.25;;;19.95;;
17173;SDS011;8702;48.130;-1.696;2022-12-18T10:06:58;28.27;;;19.58;;
17173;SDS011;8702;48.130;-1.696;2022-12-18T10:09:30;25.95;;;19.70;;
17173;SDS011;8702;48.130;-1.696;2022-12-18T10:12:07;26.02;;;19.52;;
17173;SDS011;8702;48.130;-1.696;2022-12-18T10:14:46;27.38;;;20.42;;
17173;SDS011;8702;48.130;-1.696;2022-12-18T10:17:21;26.13;;;19.10;;
17173;SDS011;8702;48.130;-1.696;2022-12-18T10:19:58;25.58;;;19.83;;
17173;SDS011;8702;48.130;-1.696;2022-12-18T10:22:35;30.83;;;20.25;;
17173;SDS011;8702;48.130;-1.696;2022-12-18T10:25:15;28.00;;;19.98;;
17173;SDS011;8702;48.130;-1.696;2022-12-18T10:27:47;29.15;;;20.33;;
17173;SDS011;8702;48.130;-1.696;2022-12-18T10:30:18;25.13;;;19.55;;
17173;SDS011;8702;48.130;-1.696;2022-12-18T10:32:45;27.35;;;20.05;;
17173;SDS011;8702;48.130;-1.696;2022-12-18T10:35:15;29.05;;;19.60;;
17173;SDS011;8702;48.130;-1.696;2022-12-18T10:38:02;26.42;;;19.00;;
17173;SDS011;8702;48.130;-1.696;2022-12-18T10:40:30;27.20;;;19.80;;
17173;SDS011;8702;48.130;-1.696;2022-12-18T10:43:10;29.05;;;19.63;;
17173;SDS011;8702;48.130;-1.696;2022-12-18T10:45:41;26.92;;;20.48;;
17173;SDS011;8702;48.130;-1.696;2022-12-18T10:48:17;28.30;;;19.92;;
17173;SDS011;8702;48.130;-1.696;2022-12-18T10:50:46;30.80;;;19.88;;
17173;SDS011;8702;48.130;-1.696;2022-12-18T10:53:18;28.70;;;19.83;;
17173;SDS011;8702;48.130;-1.696;2022-12-18T10:55:47;29.75;;;19.80;;
17173;SDS011;8702;48.130;-1.696;2022-12-18T10:58:16;26.35;;;19.85;;
17173;SDS011;8702;48.130;-1.696;2022-12-18T11:01:02;26.88;;;18.80;;
17173;SDS011;8702;48.130;-1.696;2022-12-18T11:03:32;27.83;;;20.00;;
17173;SDS011;8702;48.130;-1.696;2022-12-18T11:06:02;26.92;;;18.88;;
17173;SDS011;8702;48.130;-1.696;2022-12-18T11:08:30;28.08;;;18.85;;
17173;SDS011;8702;48.130;-1.696;2022-12-18T11:10:57;24.33;;;18.95;;
17173;SDS011;8702;48.130;-1.696;2022-12-18T11:13:25;25.27;;;18.30;;
17173;SDS011;8702;48.130;-1.696;2022-12-18T11:15:53;27.27;;;19.02;;
17173;SDS011;8702;48.130;-1.696;2022-12-18T11:18:24;23.55;;;18.58;;
17173;SDS011;8702;48.130;-1.696;2022-12-18T11:20:52;25.17;;;18.83;;
17173;SDS011;8702;48.130;-1.696;2022-12-18T11:23:21;24.27;;;18.55;;
17173;SDS011;8702;48.130;-1.696;2022-12-18T11:25:50;22.50;;;18.17;;
17173;SDS011;8702;48.130;-1.696;2022-12-18T11:28:28;24.48;;;18.45;;
17173;SDS011;8702;48.130;-1.696;2022-12-18T11:31:09;24.13;;;19.02;;
17173;SDS011;8702;48.130;-1.696;2022-12-18T11:33:40;23.73;;;18.52;;
17173;SDS011;8702;48.130;-1.696;2022-12-18T11:36:08;22.75;;;18.45;;
17173;SDS011;8702;48.130;-1.696;2022-12-18T11:38:37;23.85;;;18.45;;
17173;SDS011;8702;48.130;-1.696;2022-12-18T11:41:05;20.42;;;17.63;;
17173;SDS011;8702;48.130;-1.696;2022-12-18T11:43:35;22.40;;;17.45;;
17173;SDS011;8702;48.130;-1.696;2022-12-18T11:46:06;23.48;;;18.13;;
17173;SDS011;8702;48.130;-1.696;2022-12-18T11:48:36;21.90;;;17.92;;
17173;SDS011;8702;48.130;-1.696;2022-12-18T11:51:08;20.80;;;17.67;;
17173;SDS011;8702;48.130;-1.696;2022-12-18T11:53:38;21.45;;;16.80;;
17173;SDS011;8702;48.130;-1.696;2022-12-18T11:56:11;22.73;;;17.65;;
17173;SDS011;8702;48.130;-1.696;2022-12-18T11:58:45;23.60;;;18.08;;
17173;SDS011;8702;48.130;-1.696;2022-12-18T12:01:16;21.15;;;17.08;;
17173;SDS011;8702;48.130;-1.696;2022-12-18T12:03:50;21.57;;;16.90;;
17173;SDS011;8702;48.130;-1.696;2022-12-18T12:06:23;21.02;;;17.20;;
17173;SDS011;8702;48.130;-1.696;2022-12-18T12:08:58;22.25;;;17.70;;
17173;SDS011;8702;48.130;-1.696;2022-12-18T12:11:28;20.83;;;17.17;;
17173;SDS011;8702;48.130;-1.696;2022-12-18T12:14:03;20.33;;;16.40;;
17173;SDS011;8702;48.130;-1.696;2022-12-18T12:16:35;21.80;;;17.08;;
17173;SDS011;8702;48.130;-1.696;2022-12-18T12:19:08;20.13;;;15.73;;
17173;SDS011;8702;48.130;-1.696;2022-12-18T12:21:43;19.55;;;16.63;;
17173;SDS011;8702;48.130;-1.696;2022-12-18T12:24:19;19.00;;;16.03;;
17173;SDS011;8702;48.130;-1.696;2022-12-18T12:26:50;18.40;;;15.70;;
17173;SDS011;8702;48.130;-1.696;2022-12-18T12:29:23;18.47;;;15.77;;
17173;SDS011;8702;48.130;-1.696;2022-12-18T12:31:59;18.55;;;15.50;;
17173;SDS011;8702;48.130;-1.696;2022-12-18T12:34:31;18.08;;;15.73;;
17173;SDS011;8702;48.130;-1.696;2022-12-18T12:37:06;20.58;;;17.50;;
17173;SDS011;8702;48.130;-1.696;2022-12-18T12:39:38;18.88;;;16.08;;
17173;SDS011;8702;48.130;-1.696;2022-12-18T12:42:10;20.02;;;16.25;;
17173;SDS011;8702;48.130;-1.696;2022-12-18T12:44:57;22.75;;;17.35;;
17173;SDS011;8702;48.130;-1.696;2022-12-18T12:47:26;19.80;;;16.60;;
17173;SDS011;8702;48.130;-1.696;2022-12-18T12:49:55;20.92;;;16.40;;
17173;SDS011;8702;48.130;-1.696;2022-12-18T12:52:27;21.07;;;17.23;;
17173;SDS011;8702;48.130;-1.696;2022-12-18T12:54:56;20.88;;;16.70;;
17173;SDS011;8702;48.130;-1.696;2022-12-18T12:57:24;18.70;;;16.57;;
17173;SDS011;8702;48.130;-1.696;2022-12-18T12:59:57;19.63;;;16.23;;
17173;SDS011;8702;48.130;-1.696;2022-12-18T13:02:28;20.27;;;16.50;;
17173;SDS011;8702;48.130;-1.696;2022-12-18T13:04:57;19.08;;;16.23;;
17173;SDS011;8702;48.130;-1.696;2022-12-18T13:07:29;20.33;;;16.80;;
17173;SDS011;8702;48.130;-1.696;2022-12-18T13:10:13;21.90;;;17.15;;
17173;SDS011;8702;48.130;-1.696;2022-12-18T13:12:51;21.25;;;16.52;;
17173;SDS011;8702;48.130;-1.696;2022-12-18T13:15:26;19.60;;;16.83;;
17173;SDS011;8702;48.130;-1.696;2022-12-18T13:18:14;20.98;;;16.88;;
17173;SDS011;8702;48.130;-1.696;2022-12-18T13:20:42;19.10;;;16.30;;
17173;SDS011;8702;48.130;-1.696;2022-12-18T13:23:30;21.17;;;16.42;;
17173;SDS011;8702;48.130;-1.696;2022-12-18T13:25:58;21.20;;;17.35;;
17173;SDS011;8702;48.130;-1.696;2022-12-18T13:31:12;20.70;;;16.88;;
17173;SDS011;8702;48.130;-1.696;2022-12-18T13:33:43;20.80;;;16.73;;
17173;SDS011;8702;48.130;-1.696;2022-12-18T13:36:14;21.40;;;17.67;;
17173;SDS011;8702;48.130;-1.696;2022-12-18T13:38:44;22.98;;;18.45;;
17173;SDS011;8702;48.130;-1.696;2022-12-18T13:41:22;21.83;;;18.00;;
17173;SDS011;8702;48.130;-1.696;2022-12-18T13:43:49;24.75;;;18.75;;
17173;SDS011;8702;48.130;-1.696;2022-12-18T13:46:18;20.95;;;17.95;;
17173;SDS011;8702;48.130;-1.696;2022-12-18T13:48:50;21.92;;;17.35;;
17173;SDS011;8702;48.130;-1.696;2022-12-18T13:51:18;22.60;;;18.17;;
17173;SDS011;8702;48.130;-1.696;2022-12-18T13:53:48;21.70;;;17.02;;
17173;SDS011;8702;48.130;-1.696;2022-12-18T13:56:16;23.75;;;19.27;;
17173;SDS011;8702;48.130;-1.696;2022-12-18T13:58:44;23.52;;;18.88;;
17173;SDS011;8702;48.130;-1.696;2022-12-18T14:01:23;24.33;;;18.65;;
17173;SDS011;8702;48.130;-1.696;2022-12-18T14:03:50;24.13;;;18.40;;
17173;SDS011;8702;48.130;-1.696;2022-12-18T14:06:18;23.85;;;18.70;;
17173;SDS011;8702;48.130;-1.696;2022-12-18T14:08:45;24.20;;;19.75;;
17173;SDS011;8702;48.130;-1.696;2022-12-18T14:11:19;25.33;;;18.95;;
17173;SDS011;8702;48.130;-1.696;2022-12-18T14:13:47;20.55;;;17.75;;
17173;SDS011;8702;48.130;-1.696;2022-12-18T14:16:15;22.23;;;18.08;;
17173;SDS011;8702;48.130;-1.696;2022-12-18T14:18:44;22.40;;;18.30;;
17173;SDS011;8702;48.130;-1.696;2022-12-18T14:21:19;22.38;;;18.25;;
17173;SDS011;8702;48.130;-1.696;2022-12-18T14:23:47;23.95;;;18.33;;
17173;SDS011;8702;48.130;-1.696;2022-12-18T14:26:24;20.83;;;17.42;;
17173;SDS011;8702;48.130;-1.696;2022-12-18T14:28:53;21.10;;;17.00;;
17173;SDS011;8702;48.130;-1.696;2022-12-18T14:31:22;19.53;;;16.13;;
17173;SDS011;8702;48.130;-1.696;2022-12-18T14:33:50;18.33;;;15.00;;
17173;SDS011;8702;48.130;-1.696;2022-12-18T14:36:17;18.67;;;15.65;;